createdAt,value
2019-03-02T00:01:36.622Z,51.31
2019-03-02T00:04:09.581Z,51.72
2019-03-02T00:06:35.717Z,51.55
2019-03-02T00:09:04.087Z,51.63
2019-03-02T00:11:31.301Z,51.65
2019-03-02T00:13:58.644Z,51.42
2019-03-02T00:16:25.866Z,51.79
2019-03-02T00:18:53.080Z,51.90
2019-03-02T00:21:20.338Z,51.90
2019-03-02T00:23:50.869Z,51.62
2019-03-02T00:26:16.705Z,51.62
2019-03-02T00:28:43.937Z,51.55
2019-03-02T00:31:11.161Z,51.55
2019-03-02T00:33:38.475Z,51.51
2019-03-02T00:36:05.658Z,51.54
2019-03-02T00:38:32.875Z,51.49
2019-03-02T00:41:00.122Z,51.35
2019-03-02T00:43:28.039Z,51.14
2019-03-02T00:45:57.328Z,51.14
2019-03-02T00:48:24.476Z,51.15
2019-03-02T00:50:51.691Z,51.15
2019-03-02T00:53:54.653Z,51.48
2019-03-02T00:56:21.888Z,51.36
2019-03-02T00:58:49.113Z,51.36
2019-03-02T01:01:16.431Z,51.51
2019-03-02T01:03:43.616Z,51.63
2019-03-02T01:06:12.604Z,51.63
2019-03-02T01:08:39.933Z,51.31
2019-03-02T01:11:07.190Z,51.32
2019-03-02T01:13:34.442Z,51.28
2019-03-02T01:16:01.675Z,51.28
2019-03-02T01:18:28.869Z,51.47
2019-03-02T01:20:56.070Z,51.12
2019-03-02T01:23:23.742Z,51.12
2019-03-02T01:25:52.567Z,51.29
2019-03-02T01:28:19.742Z,51.34
2019-03-02T01:30:46.949Z,51.50
2019-03-02T01:33:14.211Z,51.50
2019-03-02T01:35:41.427Z,51.22
2019-03-02T01:38:08.714Z,51.24
2019-03-02T01:40:37.896Z,51.17
2019-03-02T01:43:05.757Z,50.92
2019-03-02T01:45:33.166Z,50.92
2019-03-02T01:48:00.441Z,51.19
2019-03-02T01:50:27.709Z,51.19
2019-03-02T01:52:54.872Z,51.05
2019-03-02T01:55:22.301Z,50.98
2019-03-02T01:57:52.340Z,50.98
2019-03-02T02:00:22.560Z,51.17
2019-03-02T02:02:49.756Z,51.25
2019-03-02T02:05:17.022Z,51.04
2019-03-02T02:07:44.211Z,51.45
2019-03-02T02:10:11.854Z,51.45
2019-03-02T02:12:39.094Z,51.29
2019-03-02T02:15:08.694Z,50.89
2019-03-02T02:17:35.896Z,51.06
2019-03-02T02:20:03.191Z,51.06
2019-03-02T02:22:30.464Z,51.39
2019-03-02T02:25:00.487Z,51.41
2019-03-02T02:27:26.883Z,51.41
2019-03-02T02:29:54.087Z,51.01
2019-03-02T02:32:24.030Z,51.45
2019-03-02T02:34:50.603Z,51.45
2019-03-02T02:37:17.812Z,51.07
2019-03-02T02:39:44.985Z,51.35
2019-03-02T02:42:12.284Z,50.86
2019-03-02T02:44:39.501Z,50.86
2019-03-02T02:47:11.612Z,51.06
2019-03-02T02:49:35.922Z,51.06
2019-03-02T02:52:03.191Z,50.93
2019-03-02T02:54:30.377Z,50.93
2019-03-02T02:56:58.746Z,50.98
2019-03-02T02:59:26.727Z,51.01
2019-03-02T03:01:53.928Z,51.06
2019-03-02T03:04:21.230Z,51.14
2019-03-02T03:06:48.431Z,51.13
2019-03-02T03:09:25.657Z,51.06
2019-03-02T03:11:52.829Z,51.04
2019-03-02T03:14:21.534Z,51.07
2019-03-02T03:16:49.464Z,51.07
2019-03-02T03:19:17.936Z,51.01
2019-03-02T03:21:45.164Z,51.03
2019-03-02T03:24:12.376Z,51.03
2019-03-02T03:26:39.621Z,51.24
2019-03-02T03:29:09.854Z,51.24
2019-03-02T03:31:36.042Z,51.09
2019-03-02T03:34:03.248Z,51.07
2019-03-02T03:36:34.070Z,50.86
2019-03-02T03:39:02.757Z,50.86
2019-03-02T03:41:28.723Z,50.99
2019-03-02T03:43:55.938Z,50.89
2019-03-02T03:46:23.895Z,50.89
2019-03-02T03:48:56.201Z,50.70
2019-03-02T03:51:20.369Z,50.70
2019-03-02T03:53:47.567Z,51.02
2019-03-02T03:56:14.820Z,51.02
2019-03-02T03:58:41.997Z,51.14
2019-03-02T04:01:17.091Z,51.14
2019-03-02T04:03:38.352Z,51.10
2019-03-02T04:06:05.589Z,51.10
2019-03-02T04:08:32.804Z,51.16
2019-03-02T04:11:04.691Z,51.19
2019-03-02T04:13:29.226Z,51.26
2019-03-02T04:15:56.664Z,51.23
2019-03-02T04:18:58.852Z,51.24
2019-03-02T04:21:37.540Z,51.27
2019-03-02T04:24:04.837Z,51.23
2019-03-02T04:26:36.855Z,51.23
2019-03-02T04:29:08.872Z,51.17
2019-03-02T04:31:30.637Z,51.15
2019-03-02T04:33:57.920Z,51.09
2019-03-02T04:36:25.222Z,50.97
2019-03-02T04:38:52.412Z,50.94
2019-03-02T04:41:19.661Z,50.90
2019-03-02T04:43:46.891Z,50.83
2019-03-02T04:46:15.422Z,50.62
2019-03-02T04:48:43.243Z,50.62
2019-03-02T04:51:10.470Z,50.67
2019-03-02T04:53:37.654Z,50.92
2019-03-02T04:56:04.872Z,50.43
2019-03-02T04:58:32.067Z,50.43
2019-03-02T05:00:59.298Z,50.60
2019-03-02T05:03:26.521Z,50.56
2019-03-02T05:05:53.715Z,50.56
2019-03-02T05:08:20.913Z,50.48
2019-03-02T05:10:48.182Z,50.51
2019-03-02T05:13:15.361Z,50.46
2019-03-02T05:15:42.787Z,50.44
2019-03-02T05:18:10.013Z,50.19
2019-03-02T05:20:37.753Z,50.41
2019-03-02T05:23:06.455Z,50.41
2019-03-02T05:25:33.706Z,50.45
2019-03-02T05:28:03.761Z,50.45
2019-03-02T05:30:30.601Z,50.05
2019-03-02T05:32:58.944Z,50.32
2019-03-02T05:35:26.121Z,50.32
2019-03-02T05:37:53.452Z,50.34
2019-03-02T05:40:20.599Z,50.27
2019-03-02T05:42:51.534Z,50.26
2019-03-02T05:45:16.945Z,50.31
2019-03-02T05:47:44.173Z,50.21
2019-03-02T05:50:11.407Z,50.25
2019-03-02T05:52:38.627Z,50.16
2019-03-02T05:55:06.092Z,50.16
2019-03-02T05:57:33.295Z,50.23
2019-03-02T06:00:01.880Z,50.23
2019-03-02T06:02:29.642Z,50.41
2019-03-02T06:04:57.196Z,50.33
2019-03-02T06:07:25.354Z,50.33
2019-03-02T06:09:52.569Z,50.43
2019-03-02T06:12:19.785Z,50.39
2019-03-02T06:14:47.130Z,50.14
2019-03-02T06:17:14.327Z,50.10
2019-03-02T06:19:41.515Z,50.21
2019-03-02T06:22:08.802Z,50.21
2019-03-02T06:24:37.757Z,50.35
2019-03-02T06:27:07.783Z,50.40
2019-03-02T06:29:34.248Z,50.41
2019-03-02T06:32:01.481Z,50.13
2019-03-02T06:34:28.714Z,50.58
2019-03-02T06:36:55.924Z,50.58
2019-03-02T06:39:23.182Z,50.27
2019-03-02T06:41:50.361Z,50.42
2019-03-02T06:44:17.608Z,50.42
2019-03-02T06:46:44.764Z,50.31
2019-03-02T06:49:11.998Z,50.29
2019-03-02T06:51:39.243Z,50.50
2019-03-02T06:54:09.115Z,50.29
2019-03-02T06:56:35.940Z,50.08
2019-03-02T06:59:05.007Z,50.08
2019-03-02T07:01:32.284Z,50.13
2019-03-02T07:03:59.458Z,50.11
2019-03-02T07:06:27.307Z,50.27
2019-03-02T07:08:54.533Z,50.09
2019-03-02T07:11:21.706Z,50.09
2019-03-02T07:13:48.931Z,49.91
2019-03-02T07:16:16.591Z,50.16
2019-03-02T07:18:50.850Z,50.16
2019-03-02T07:21:18.102Z,50.01
2019-03-02T07:23:45.284Z,49.65
2019-03-02T07:26:15.878Z,50.57
2019-03-02T07:28:42.254Z,50.57
2019-03-02T07:31:10.288Z,49.87
2019-03-02T07:33:37.515Z,49.76
2019-03-02T07:36:04.715Z,49.76
2019-03-02T07:38:31.967Z,49.39
2019-03-02T07:40:59.173Z,49.65
2019-03-02T07:43:26.443Z,49.95
2019-03-02T07:45:53.673Z,49.73
2019-03-02T07:48:20.899Z,49.82
2019-03-02T07:50:48.166Z,50.01
2019-03-02T07:53:15.346Z,49.89
2019-03-02T07:55:42.684Z,49.89
2019-03-02T07:58:09.917Z,49.94
2019-03-02T08:00:37.850Z,49.94
2019-03-02T08:03:06.231Z,49.74
2019-03-02T08:05:33.476Z,49.74
2019-03-02T08:08:00.697Z,49.60
2019-03-02T08:10:27.931Z,49.64
2019-03-02T08:12:57.817Z,49.52
2019-03-02T08:15:25.814Z,49.52
2019-03-02T08:17:53.195Z,49.40
2019-03-02T08:20:23.892Z,49.38
2019-03-02T08:22:49.749Z,49.33
2019-03-02T08:25:16.953Z,49.34
2019-03-02T08:27:44.155Z,49.21
2019-03-02T08:30:13.804Z,49.21
2019-03-02T08:32:40.998Z,49.07
2019-03-02T08:35:08.836Z,49.07
2019-03-02T08:37:36.066Z,48.89
2019-03-02T08:40:03.661Z,48.83
2019-03-02T08:42:31.018Z,48.64
2019-03-02T08:44:58.228Z,48.64
2019-03-02T08:47:25.417Z,48.65
2019-03-02T08:49:54.730Z,48.57
2019-03-02T08:52:21.907Z,48.58
2019-03-02T08:54:49.165Z,48.52
2019-03-02T08:57:19.569Z,48.38
2019-03-02T08:59:45.526Z,48.39
2019-03-02T09:02:12.766Z,48.41
2019-03-02T09:04:39.945Z,48.45
2019-03-02T09:07:07.802Z,48.37
2019-03-02T09:09:36.435Z,48.42
2019-03-02T09:12:03.799Z,48.02
2019-03-02T09:14:30.955Z,48.02
2019-03-02T09:16:58.132Z,48.20
2019-03-02T09:19:25.368Z,48.17
2019-03-02T09:21:52.536Z,47.99
2019-03-02T09:24:19.850Z,47.92
2019-03-02T09:26:47.031Z,47.95
2019-03-02T09:29:14.254Z,47.92
2019-03-02T09:31:42.693Z,48.01
2019-03-02T09:34:09.887Z,48.03
2019-03-02T09:36:37.130Z,48.06
2019-03-02T09:39:06.242Z,48.11
2019-03-02T09:41:33.407Z,48.11
2019-03-02T09:44:01.842Z,48.10
2019-03-02T09:46:29.235Z,48.16
2019-03-02T09:48:56.884Z,48.32
2019-03-02T09:51:25.741Z,48.28
2019-03-02T09:53:52.950Z,48.28
2019-03-02T09:56:20.166Z,48.12
2019-03-02T09:58:47.667Z,48.01
2019-03-02T10:01:14.879Z,47.95
2019-03-02T10:03:42.052Z,48.07
2019-03-02T10:06:09.274Z,48.07
2019-03-02T10:08:36.477Z,47.90
2019-03-02T10:11:06.151Z,47.90
2019-03-02T10:13:32.897Z,47.91
2019-03-02T10:16:00.609Z,47.94
2019-03-02T10:18:29.234Z,47.97
2019-03-02T10:20:56.412Z,47.97
2019-03-02T10:23:23.664Z,47.96
2019-03-02T10:25:50.905Z,47.96
2019-03-02T10:28:18.156Z,47.84
2019-03-02T10:30:45.315Z,47.77
2019-03-02T10:33:12.547Z,47.87
2019-03-02T10:35:39.714Z,47.92
2019-03-02T10:38:06.952Z,47.80
2019-03-02T10:40:34.141Z,47.79
2019-03-02T10:43:01.367Z,47.72
2019-03-02T10:45:28.784Z,47.67
2019-03-02T10:47:56.084Z,47.63
2019-03-02T10:50:24.857Z,47.68
2019-03-02T10:52:52.366Z,47.72
2019-03-02T10:55:19.768Z,47.70
2019-03-02T10:57:47.064Z,47.81
2019-03-02T11:00:19.928Z,47.81
2019-03-02T11:02:47.122Z,47.89
2019-03-02T11:05:34.085Z,47.82
2019-03-02T11:08:25.453Z,47.83
2019-03-02T11:11:18.106Z,47.80
2019-03-02T11:14:13.650Z,47.73
2019-03-02T11:16:59.194Z,47.65
2019-03-02T11:19:55.048Z,47.55
2019-03-02T11:22:44.874Z,47.58
2019-03-02T11:25:25.031Z,47.59
2019-03-02T11:28:14.462Z,47.54
2019-03-02T11:30:57.056Z,47.49
2019-03-02T11:33:42.266Z,47.38
2019-03-02T11:36:41.167Z,47.30
2019-03-02T11:39:17.221Z,47.26
2019-03-02T11:41:56.411Z,47.13
2019-03-02T11:44:38.037Z,47.04
2019-03-02T11:47:27.816Z,46.95
2019-03-02T11:50:17.359Z,46.89
2019-03-02T11:52:50.507Z,46.86
2019-03-02T11:55:46.664Z,46.79
2019-03-02T11:58:42.441Z,46.70
2019-03-02T12:01:35.477Z,46.66
2019-03-02T12:04:20.672Z,46.59
2019-03-02T12:07:06.169Z,46.65
2019-03-02T12:09:51.731Z,46.66
2019-03-02T12:12:51.380Z,46.63
2019-03-02T12:15:39.527Z,46.52
2019-03-02T12:18:32.221Z,46.48
2019-03-02T12:21:21.153Z,46.47
2019-03-02T12:24:15.302Z,46.42
2019-03-02T12:27:00.786Z,46.33
2019-03-02T12:30:02.982Z,46.36
2019-03-02T12:32:52.054Z,46.35
2019-03-02T12:35:29.270Z,46.33
2019-03-02T12:38:11.472Z,46.27
2019-03-02T12:41:16.730Z,46.29
2019-03-02T12:44:02.151Z,46.22
2019-03-02T12:46:58.320Z,46.20
2019-03-02T12:49:47.119Z,46.27
2019-03-02T12:52:32.781Z,46.21
2019-03-02T12:55:09.400Z,46.10
2019-03-02T12:57:48.080Z,46.03
2019-03-02T13:00:31.252Z,46.02
2019-03-02T13:03:16.686Z,45.99
2019-03-02T13:06:09.488Z,46.00
2019-03-02T13:08:50.592Z,45.89
2019-03-02T13:11:33.290Z,45.84
2019-03-02T13:14:17.633Z,45.86
2019-03-02T13:17:03.753Z,45.69
2019-03-02T13:19:53.665Z,45.68
2019-03-02T13:22:35.443Z,45.63
2019-03-02T13:25:20.757Z,45.69
2019-03-02T13:28:07.948Z,45.81
2019-03-02T13:30:42.505Z,45.89
2019-03-02T13:33:35.744Z,45.89
2019-03-02T13:36:35.144Z,45.85
2019-03-02T13:39:15.500Z,45.68
2019-03-02T13:41:55.836Z,45.60
2019-03-02T13:44:54.587Z,45.62
2019-03-02T13:47:30.737Z,45.64
2019-03-02T13:50:17.496Z,45.74
2019-03-02T13:53:10.360Z,45.72
2019-03-02T13:55:45.944Z,45.64
2019-03-02T13:58:33.891Z,45.63
2019-03-02T14:01:21.240Z,45.63
2019-03-02T14:03:59.015Z,45.58
2019-03-02T14:06:44.221Z,45.67
2019-03-02T14:09:21.896Z,45.68
2019-03-02T14:12:07.700Z,45.80
2019-03-02T14:14:54.437Z,45.75
2019-03-02T14:17:42.871Z,45.97
2019-03-02T14:20:44.409Z,46.09
2019-03-02T14:23:32.226Z,46.14
2019-03-02T14:26:05.531Z,46.18
2019-03-02T14:28:41.496Z,46.31
2019-03-02T14:31:20.398Z,46.36
2019-03-02T14:34:08.635Z,46.51
2019-03-02T14:36:46.924Z,46.61
2019-03-02T14:39:24.795Z,46.73
2019-03-02T14:42:17.499Z,46.83
2019-03-02T14:45:13.252Z,46.91
2019-03-02T14:48:13.254Z,46.92
2019-03-02T14:50:53.853Z,47.04
2019-03-02T14:53:52.931Z,47.12
2019-03-02T14:56:29.416Z,47.17
2019-03-02T14:59:16.152Z,47.27
2019-03-02T15:02:01.567Z,47.30
2019-03-02T15:04:57.455Z,47.33
2019-03-02T15:07:59.000Z,47.35
2019-03-02T15:10:48.307Z,47.42
2019-03-02T15:13:47.187Z,47.42
2019-03-02T15:16:51.950Z,47.45
2019-03-02T15:19:39.587Z,47.52
2019-03-02T15:22:20.514Z,47.55
2019-03-02T15:25:08.842Z,47.59
2019-03-02T15:27:56.370Z,47.68
2019-03-02T15:30:44.474Z,47.69
2019-03-02T15:33:37.536Z,47.71
2019-03-02T15:36:34.826Z,47.72
2019-03-02T15:39:20.642Z,47.67
2019-03-02T15:41:59.710Z,47.69
2019-03-02T15:44:58.585Z,47.65
2019-03-02T15:47:50.770Z,47.66
2019-03-02T15:50:23.018Z,47.67
2019-03-02T15:53:01.406Z,47.73
2019-03-02T15:55:56.334Z,47.69
2019-03-02T15:58:41.855Z,47.65
2019-03-02T16:01:34.837Z,47.59
2019-03-02T16:04:22.488Z,47.51
2019-03-02T16:07:07.816Z,47.47
2019-03-02T16:10:00.804Z,47.54
2019-03-02T16:13:07.406Z,47.63
2019-03-02T16:15:49.006Z,47.69
2019-03-02T16:18:38.533Z,47.76
2019-03-02T16:21:24.183Z,47.79
2019-03-02T16:24:10.830Z,47.86
2019-03-02T16:26:57.659Z,47.88
2019-03-02T16:29:42.935Z,47.90
2019-03-02T16:32:32.832Z,47.90
2019-03-02T16:35:25.835Z,47.92
2019-03-02T16:38:18.675Z,47.98
2019-03-02T16:41:17.740Z,48.00
2019-03-02T16:44:03.141Z,47.95
2019-03-02T16:46:49.692Z,47.88
2019-03-02T16:49:32.163Z,47.88
2019-03-02T16:52:17.592Z,47.93
2019-03-02T16:55:05.975Z,47.95
2019-03-02T16:57:41.356Z,47.99
2019-03-02T17:00:17.874Z,48.05
2019-03-02T17:02:54.013Z,48.07
2019-03-02T17:05:39.796Z,48.12
2019-03-02T17:08:45.656Z,48.16
2019-03-02T17:11:23.386Z,48.19
2019-03-02T17:14:10.234Z,48.37
2019-03-02T17:16:55.531Z,48.32
2019-03-02T17:19:41.434Z,48.32
2019-03-02T17:22:33.978Z,48.34
2019-03-02T17:25:16.203Z,48.41
2019-03-02T17:27:58.364Z,48.47
2019-03-02T17:30:36.078Z,48.50
2019-03-02T17:33:32.432Z,48.53
2019-03-02T17:36:15.546Z,48.55
2019-03-02T17:39:06.961Z,48.17
2019-03-02T17:41:55.031Z,48.63
2019-03-02T17:44:34.034Z,48.85
2019-03-02T17:47:22.958Z,48.85
2019-03-02T17:50:09.987Z,48.83
2019-03-02T17:53:04.248Z,48.68
2019-03-02T17:55:40.143Z,48.73
2019-03-02T17:58:28.083Z,48.69
2019-03-02T18:01:28.730Z,48.69
2019-03-02T18:04:09.548Z,48.81
2019-03-02T18:06:55.797Z,48.81
2019-03-02T18:09:31.756Z,48.80
2019-03-02T18:12:23.435Z,48.79
2019-03-02T18:15:12.987Z,48.79
2019-03-02T18:17:55.453Z,48.80
2019-03-02T18:20:23.268Z,48.80
2019-03-02T18:22:50.342Z,48.87
2019-03-02T18:25:17.535Z,49.01
2019-03-02T18:27:44.776Z,49.01
2019-03-02T18:30:14.249Z,48.86
2019-03-02T18:32:41.513Z,48.85
2019-03-02T18:35:08.672Z,48.83
2019-03-02T18:37:35.869Z,48.83
2019-03-02T18:40:04.083Z,48.68
2019-03-02T18:42:31.861Z,48.68
2019-03-02T18:45:02.692Z,48.87
2019-03-02T18:47:30.002Z,48.89
2019-03-02T18:50:10.092Z,48.89
2019-03-02T18:52:57.066Z,48.85
2019-03-02T18:55:25.855Z,48.64
2019-03-02T18:57:54.158Z,48.64
2019-03-02T19:00:25.198Z,48.82
2019-03-02T19:02:52.370Z,48.83
2019-03-02T19:05:28.402Z,48.86
2019-03-02T19:07:56.972Z,48.81
2019-03-02T19:10:24.197Z,48.45
2019-03-02T19:12:51.414Z,48.45
2019-03-02T19:15:18.649Z,49.02
2019-03-02T19:17:46.010Z,49.02
2019-03-02T19:20:13.226Z,48.87
2019-03-02T19:22:40.599Z,48.97
2019-03-02T19:25:07.844Z,48.97
2019-03-02T19:27:35.037Z,48.97
2019-03-02T19:30:02.269Z,48.97
2019-03-02T19:32:29.498Z,48.92
2019-03-02T19:34:56.747Z,48.84
2019-03-02T19:37:23.963Z,48.84
2019-03-02T19:39:51.163Z,48.96
2019-03-02T19:42:18.369Z,48.95
2019-03-02T19:44:45.617Z,48.95
2019-03-02T19:47:12.794Z,49.01
2019-03-02T19:49:39.977Z,48.96
2019-03-02T19:52:07.239Z,48.99
2019-03-02T19:54:34.412Z,49.06
2019-03-02T19:57:01.623Z,49.04
2019-03-02T19:59:28.801Z,49.01
2019-03-02T20:01:55.974Z,49.01
2019-03-02T20:04:23.216Z,49.10
2019-03-02T20:06:50.446Z,49.08
2019-03-02T20:09:17.664Z,49.08
2019-03-02T20:11:44.884Z,49.09
2019-03-02T20:14:12.079Z,49.09
2019-03-02T20:16:39.277Z,49.12
2019-03-02T20:19:06.519Z,49.01
2019-03-02T20:21:33.922Z,49.01
2019-03-02T20:24:01.122Z,49.13
2019-03-02T20:26:28.358Z,49.14
2019-03-02T20:28:55.551Z,49.06
2019-03-02T20:31:22.830Z,49.06
2019-03-02T20:33:50.020Z,49.04
2019-03-02T20:36:17.198Z,49.35
2019-03-02T20:38:44.454Z,49.08
2019-03-02T20:41:11.668Z,49.08
2019-03-02T20:43:38.887Z,49.20
2019-03-02T20:46:06.107Z,49.18
2019-03-02T20:48:33.395Z,49.17
2019-03-02T20:51:00.582Z,49.21
2019-03-02T20:53:27.767Z,49.11
2019-03-02T20:55:54.973Z,49.28
2019-03-02T20:58:22.179Z,49.30
2019-03-02T21:00:49.412Z,49.33
2019-03-02T21:03:16.652Z,49.37
2019-03-02T21:05:43.861Z,49.33
2019-03-02T21:08:11.052Z,49.37
2019-03-02T21:10:38.248Z,49.28
2019-03-02T21:13:05.444Z,49.28
2019-03-02T21:15:34.333Z,49.52
2019-03-02T21:18:01.868Z,49.57
2019-03-02T21:20:29.055Z,49.63
2019-03-02T21:22:56.323Z,49.63
2019-03-02T21:25:23.577Z,49.38
2019-03-02T21:27:50.795Z,49.38
2019-03-02T21:30:18.083Z,49.55
2019-03-02T21:32:45.284Z,49.74
2019-03-02T21:35:12.490Z,49.74
2019-03-02T21:37:39.742Z,49.68
2019-03-02T21:40:10.444Z,49.52
2019-03-02T21:42:37.691Z,49.52
2019-03-02T21:45:06.219Z,49.65
2019-03-02T21:47:33.431Z,49.62
2019-03-02T21:50:00.672Z,49.63
2019-03-02T21:52:27.883Z,49.63
2019-03-02T21:54:55.095Z,49.59
2019-03-02T21:57:22.311Z,49.76
2019-03-02T21:59:49.503Z,49.56
2019-03-02T22:02:16.748Z,49.58
2019-03-02T22:04:43.946Z,49.56
2019-03-02T22:07:11.131Z,49.56
2019-03-02T22:09:38.359Z,49.58
2019-03-02T22:12:05.553Z,48.94
2019-03-02T22:14:32.798Z,48.94
2019-03-02T22:17:01.894Z,49.33
2019-03-02T22:19:29.073Z,49.33
2019-03-02T22:21:56.414Z,49.44
2019-03-02T22:24:23.700Z,49.31
2019-03-02T22:26:50.887Z,49.31
2019-03-02T22:29:18.118Z,49.27
2019-03-02T22:31:45.354Z,49.27
2019-03-02T22:34:12.594Z,49.11
2019-03-02T22:36:39.826Z,49.52
2019-03-02T22:39:07.050Z,49.56
2019-03-02T22:41:34.257Z,49.56
2019-03-02T22:44:01.481Z,49.55
2019-03-02T22:46:28.706Z,49.55
2019-03-02T22:48:55.906Z,49.31
2019-03-02T22:51:23.143Z,49.61
2019-03-02T22:53:50.419Z,49.61
2019-03-02T22:56:17.595Z,49.29
2019-03-02T22:58:44.416Z,49.49
2019-03-02T23:01:45.554Z,49.49
2019-03-02T23:04:12.894Z,49.29
2019-03-02T23:06:40.156Z,49.27
2019-03-02T23:09:09.354Z,49.03
2019-03-02T23:11:36.580Z,49.03
2019-03-02T23:14:03.836Z,49.21
2019-03-02T23:16:31.015Z,49.12
2019-03-02T23:18:58.264Z,49.07
2019-03-02T23:21:25.469Z,49.16
2019-03-02T23:23:52.749Z,49.11
2019-03-02T23:26:19.981Z,49.11
2019-03-02T23:28:47.229Z,49.37
2019-03-02T23:31:14.948Z,48.90
2019-03-02T23:33:42.167Z,48.90
2019-03-02T23:36:09.387Z,49.10
2019-03-02T23:38:36.602Z,49.20
2019-03-02T23:41:03.892Z,49.14
2019-03-02T23:43:31.029Z,49.10
2019-03-02T23:45:58.267Z,49.01
2019-03-02T23:48:25.472Z,49.01
2019-03-02T23:50:52.691Z,49.13
2019-03-02T23:53:19.883Z,49.14
2019-03-02T23:55:47.180Z,49.23
2019-03-02T23:58:14.419Z,49.30
